createdAt,value
2023-02-14T00:00:33.052Z,3.15
2023-02-14T00:01:33.068Z,3.13
2023-02-14T00:02:33.184Z,3.21
2023-02-14T00:03:33.106Z,3.21
2023-02-14T00:04:33.178Z,3.11
2023-02-14T00:05:33.139Z,3.14
2023-02-14T00:06:33.159Z,3.13
2023-02-14T00:07:33.177Z,3.14
2023-02-14T00:08:33.190Z,3.13
2023-02-14T00:09:33.208Z,3.13
2023-02-14T00:10:33.232Z,3.17
2023-02-14T00:11:33.248Z,3.17
2023-02-14T00:12:33.261Z,3.15
2023-02-14T00:13:33.282Z,3.13
2023-02-14T00:14:33.298Z,3.11
2023-02-14T00:15:33.322Z,3.15
2023-02-14T00:16:33.481Z,3.18
2023-02-14T00:17:33.362Z,3.18
2023-02-14T00:18:33.367Z,3.14
2023-02-14T00:19:33.386Z,3.17
2023-02-14T00:20:33.432Z,3.08
2023-02-14T00:21:33.419Z,3.13
2023-02-14T00:22:33.436Z,3.17
2023-02-14T00:23:33.453Z,3.10
2023-02-14T00:24:33.477Z,3.11
2023-02-14T00:25:33.489Z,3.13
2023-02-14T00:26:33.511Z,3.00
2023-02-14T00:27:33.528Z,3.03
2023-02-14T00:28:33.547Z,3.00
2023-02-14T00:29:33.585Z,3.02
2023-02-14T00:30:33.674Z,2.92
2023-02-14T00:31:33.739Z,2.93
2023-02-14T00:32:33.611Z,2.95
2023-02-14T00:33:33.629Z,2.95
2023-02-14T00:34:33.654Z,2.99
2023-02-14T00:35:33.667Z,2.90
2023-02-14T00:36:33.684Z,2.96
2023-02-14T00:37:33.702Z,2.95
2023-02-14T00:38:33.730Z,2.97
2023-02-14T00:39:33.760Z,3.03
2023-02-14T00:40:33.751Z,3.11
2023-02-14T00:41:33.786Z,3.03
2023-02-14T00:42:33.792Z,3.17
2023-02-14T00:43:33.820Z,3.10
2023-02-14T00:44:33.819Z,3.03
2023-02-14T00:45:33.859Z,3.11
2023-02-14T00:46:33.857Z,3.13
2023-02-14T00:47:33.878Z,3.06
2023-02-14T00:48:33.889Z,3.02
2023-02-14T00:49:34.070Z,3.06
2023-02-14T00:50:33.928Z,2.99
2023-02-14T00:51:33.958Z,2.93
2023-02-14T00:52:33.960Z,3.05
2023-02-14T00:53:33.976Z,2.96
2023-02-14T00:54:33.996Z,2.96
2023-02-14T00:55:34.009Z,2.95
2023-02-14T00:56:34.033Z,2.92
2023-02-14T00:57:34.045Z,2.92
2023-02-14T00:58:34.066Z,2.84
2023-02-14T00:59:34.088Z,2.75
2023-02-14T01:00:34.129Z,2.81
2023-02-14T01:01:34.130Z,2.75
2023-02-14T01:02:34.150Z,2.67
2023-02-14T01:03:34.149Z,2.75
2023-02-14T01:04:34.179Z,2.74
2023-02-14T01:05:34.183Z,2.75
2023-02-14T01:06:34.200Z,2.75
2023-02-14T01:07:34.220Z,2.75
2023-02-14T01:08:34.233Z,2.69
2023-02-14T01:09:34.250Z,2.69
2023-02-14T01:10:34.265Z,2.75
2023-02-14T01:11:34.289Z,2.69
2023-02-14T01:12:34.309Z,2.63
2023-02-14T01:13:34.318Z,2.71
2023-02-14T01:14:34.339Z,2.71
2023-02-14T01:15:34.354Z,2.67
2023-02-14T01:16:34.380Z,2.71
2023-02-14T01:17:34.388Z,2.66
2023-02-14T01:18:34.408Z,2.71
2023-02-14T01:19:34.434Z,2.66
2023-02-14T01:20:34.438Z,2.69
2023-02-14T01:21:34.461Z,2.69
2023-02-14T01:22:34.475Z,2.63
2023-02-14T01:23:34.494Z,2.59
2023-02-14T01:24:34.515Z,2.53
2023-02-14T01:25:34.523Z,2.63
2023-02-14T01:26:34.542Z,2.60
2023-02-14T01:27:34.571Z,2.48
2023-02-14T01:28:34.576Z,2.52
2023-02-14T01:29:34.594Z,2.52
2023-02-14T01:30:34.617Z,2.42
2023-02-14T01:31:34.719Z,2.54
2023-02-14T01:32:34.645Z,2.45
2023-02-14T01:33:34.667Z,2.46
2023-02-14T01:34:34.678Z,2.54
2023-02-14T01:35:34.696Z,2.56
2023-02-14T01:36:34.712Z,2.63
2023-02-14T01:37:34.733Z,2.52
2023-02-14T01:38:34.747Z,2.54
2023-02-14T01:39:34.766Z,2.48
2023-02-14T01:40:34.779Z,2.53
2023-02-14T01:41:34.799Z,2.53
2023-02-14T01:42:34.824Z,2.54
2023-02-14T01:43:34.831Z,2.53
2023-02-14T01:44:34.854Z,2.49
2023-02-14T01:45:34.917Z,2.57
2023-02-14T01:46:34.890Z,2.59
2023-02-14T01:47:34.904Z,2.59
2023-02-14T01:48:34.920Z,2.56
2023-02-14T01:49:34.957Z,2.56
2023-02-14T01:50:34.954Z,2.48
2023-02-14T01:51:34.973Z,2.52
2023-02-14T01:52:35.005Z,2.45
2023-02-14T01:53:35.025Z,2.49
2023-02-14T01:54:35.025Z,2.46
2023-02-14T01:55:35.046Z,2.56
2023-02-14T01:56:35.062Z,2.56
2023-02-14T01:57:35.075Z,2.45
2023-02-14T01:58:35.098Z,2.49
2023-02-14T01:59:35.112Z,2.49
2023-02-14T02:00:35.165Z,2.52
2023-02-14T02:01:35.187Z,2.49
2023-02-14T02:02:35.219Z,2.52
2023-02-14T02:03:35.179Z,2.46
2023-02-14T02:04:35.200Z,2.48
2023-02-14T02:05:35.212Z,2.41
2023-02-14T02:06:35.230Z,2.38
2023-02-14T02:07:35.246Z,2.48
2023-02-14T02:08:35.263Z,2.48
2023-02-14T02:09:35.278Z,2.39
2023-02-14T02:10:35.297Z,2.45
2023-02-14T02:11:35.313Z,2.41
2023-02-14T02:12:35.337Z,2.35
2023-02-14T02:13:35.348Z,2.41
2023-02-14T02:14:35.366Z,2.28
2023-02-14T02:15:35.381Z,2.30
2023-02-14T02:16:35.435Z,2.24
2023-02-14T02:17:35.415Z,2.27
2023-02-14T02:18:35.435Z,2.27
2023-02-14T02:19:35.448Z,2.39
2023-02-14T02:20:35.466Z,2.39
2023-02-14T02:21:35.482Z,2.35
2023-02-14T02:22:35.502Z,2.42
2023-02-14T02:23:35.510Z,2.41
2023-02-14T02:24:35.534Z,2.46
2023-02-14T02:25:35.551Z,2.41
2023-02-14T02:26:35.568Z,2.54
2023-02-14T02:27:35.584Z,2.39
2023-02-14T02:28:35.599Z,2.38
2023-02-14T02:29:35.619Z,2.39
2023-02-14T02:30:35.808Z,2.39
2023-02-14T02:31:35.804Z,2.41
2023-02-14T02:32:35.679Z,2.41
2023-02-14T02:33:35.684Z,2.36
2023-02-14T02:34:35.709Z,2.38
2023-02-14T02:35:35.720Z,2.42
2023-02-14T02:36:35.736Z,2.43
2023-02-14T02:37:35.756Z,2.38
2023-02-14T02:38:35.769Z,2.35
2023-02-14T02:39:35.804Z,2.43
2023-02-14T02:40:35.802Z,2.42
2023-02-14T02:41:35.827Z,2.42
2023-02-14T02:42:35.843Z,2.45
2023-02-14T02:43:35.864Z,2.43
2023-02-14T02:44:35.871Z,2.35
2023-02-14T02:45:35.897Z,2.45
2023-02-14T02:46:35.907Z,2.53
2023-02-14T02:47:35.932Z,2.39
2023-02-14T02:48:35.969Z,2.49
2023-02-14T02:49:35.957Z,2.41
2023-02-14T02:50:35.971Z,2.52
2023-02-14T02:51:35.988Z,2.53
2023-02-14T02:52:36.004Z,2.48
2023-02-14T02:53:36.022Z,2.48
2023-02-14T02:54:36.042Z,2.49
2023-02-14T02:55:36.057Z,2.53
2023-02-14T02:56:36.072Z,2.54
2023-02-14T02:57:36.088Z,2.49
2023-02-14T02:58:36.107Z,2.61
2023-02-14T02:59:36.122Z,2.45
2023-02-14T03:00:36.137Z,2.52
2023-02-14T03:01:36.307Z,2.49
2023-02-14T03:02:36.172Z,2.48
2023-02-14T03:03:36.193Z,2.49
2023-02-14T03:04:36.274Z,2.52
2023-02-14T03:05:36.229Z,2.49
2023-02-14T03:06:36.246Z,2.38
2023-02-14T03:07:36.277Z,2.41
2023-02-14T03:08:36.273Z,2.38
2023-02-14T03:09:36.288Z,2.42
2023-02-14T03:10:36.320Z,2.36
2023-02-14T03:11:36.323Z,2.41
2023-02-14T03:12:36.340Z,2.41
2023-02-14T03:13:36.357Z,2.31
2023-02-14T03:14:36.380Z,2.38
2023-02-14T03:15:36.435Z,2.39
2023-02-14T03:16:36.415Z,2.42
2023-02-14T03:17:36.437Z,2.35
2023-02-14T03:18:36.439Z,2.35
2023-02-14T03:19:36.458Z,2.27
2023-02-14T03:20:36.477Z,2.25
2023-02-14T03:21:36.492Z,2.31
2023-02-14T03:22:36.515Z,2.31
2023-02-14T03:23:36.526Z,2.41
2023-02-14T03:24:36.546Z,2.35
2023-02-14T03:25:36.559Z,2.39
2023-02-14T03:26:36.585Z,2.31
2023-02-14T03:27:36.597Z,2.25
2023-02-14T03:28:36.611Z,2.28
2023-02-14T03:29:36.626Z,2.23
2023-02-14T03:30:36.676Z,2.27
2023-02-14T03:31:36.749Z,2.24
2023-02-14T03:32:36.685Z,2.25
2023-02-14T03:33:36.694Z,2.24
2023-02-14T03:34:36.711Z,2.20
2023-02-14T03:35:36.728Z,2.12
2023-02-14T03:36:36.742Z,2.18
2023-02-14T03:37:36.758Z,2.12
2023-02-14T03:38:36.779Z,2.07
2023-02-14T03:39:36.793Z,2.07
2023-02-14T03:40:36.810Z,2.06
2023-02-14T03:41:36.826Z,2.09
2023-02-14T03:42:36.857Z,2.07
2023-02-14T03:43:36.858Z,2.16
2023-02-14T03:44:36.879Z,2.14
2023-02-14T03:45:36.898Z,2.20
2023-02-14T03:46:36.947Z,2.09
2023-02-14T03:47:36.926Z,2.17
2023-02-14T03:48:36.942Z,2.09
2023-02-14T03:49:36.964Z,2.07
2023-02-14T03:50:36.986Z,2.14
2023-02-14T03:51:36.994Z,2.17
2023-02-14T03:52:37.012Z,2.16
2023-02-14T03:53:37.026Z,2.07
2023-02-14T03:54:37.047Z,2.14
2023-02-14T03:55:37.059Z,2.17
2023-02-14T03:56:37.076Z,2.14
2023-02-14T03:57:37.094Z,2.03
2023-02-14T03:58:37.109Z,2.12
2023-02-14T03:59:37.128Z,2.05
2023-02-14T04:00:37.144Z,2.06
2023-02-14T04:01:37.185Z,1.99
2023-02-14T04:02:37.175Z,2.06
2023-02-14T04:03:37.220Z,1.93
2023-02-14T04:04:37.221Z,1.91
2023-02-14T04:05:37.231Z,1.90
2023-02-14T04:06:37.244Z,1.93
2023-02-14T04:07:37.258Z,1.99
2023-02-14T04:08:37.277Z,1.93
2023-02-14T04:09:37.290Z,1.90
2023-02-14T04:10:37.312Z,1.87
2023-02-14T04:11:37.332Z,1.87
2023-02-14T04:12:38.273Z,1.84
2023-02-14T04:13:37.355Z,1.84
2023-02-14T04:14:37.388Z,1.83
2023-02-14T04:15:37.559Z,1.84
2023-02-14T04:16:37.406Z,1.81
2023-02-14T04:17:37.426Z,1.79
2023-02-14T04:18:37.451Z,1.76
2023-02-14T04:19:37.460Z,1.70
2023-02-14T04:20:37.475Z,1.70
2023-02-14T04:21:37.488Z,1.66
2023-02-14T04:22:37.511Z,1.70
2023-02-14T04:23:37.523Z,1.60
2023-02-14T04:24:37.535Z,1.72
2023-02-14T04:25:37.566Z,1.63
2023-02-14T04:26:37.570Z,1.65
2023-02-14T04:27:37.586Z,1.73
2023-02-14T04:28:37.604Z,1.65
2023-02-14T04:29:37.621Z,1.66
2023-02-14T04:30:37.638Z,1.69
2023-02-14T04:31:37.734Z,1.63
2023-02-14T04:32:37.671Z,1.68
2023-02-14T04:33:37.686Z,1.66
2023-02-14T04:34:37.704Z,1.68
2023-02-14T04:35:37.719Z,1.63
2023-02-14T04:36:37.741Z,1.66
2023-02-14T04:37:37.754Z,1.65
2023-02-14T04:38:37.768Z,1.70
2023-02-14T04:39:37.785Z,1.68
2023-02-14T04:40:37.799Z,1.73
2023-02-14T04:41:37.816Z,1.68
2023-02-14T04:42:37.833Z,1.68
2023-02-14T04:43:37.848Z,1.65
2023-02-14T04:44:37.864Z,1.70
2023-02-14T04:45:37.885Z,1.73
2023-02-14T04:46:37.939Z,1.63
2023-02-14T04:47:37.925Z,1.70
2023-02-14T04:48:37.942Z,1.72
2023-02-14T04:49:37.945Z,1.68
2023-02-14T04:50:37.965Z,1.58
2023-02-14T04:51:37.979Z,1.62
2023-02-14T04:52:37.992Z,1.65
2023-02-14T04:53:38.005Z,1.63
2023-02-14T04:54:38.025Z,1.68
2023-02-14T04:55:38.049Z,1.60
2023-02-14T04:56:38.061Z,1.68
2023-02-14T04:57:38.081Z,1.62
2023-02-14T04:58:38.113Z,1.62
2023-02-14T04:59:38.110Z,1.55
2023-02-14T05:00:38.162Z,1.59
2023-02-14T05:01:38.208Z,1.59
2023-02-14T05:02:38.161Z,1.59
2023-02-14T05:03:38.171Z,1.58
2023-02-14T05:04:38.185Z,1.55
2023-02-14T05:05:38.211Z,1.54
2023-02-14T05:06:38.220Z,1.60
2023-02-14T05:07:38.237Z,1.50
2023-02-14T05:08:38.253Z,1.47
2023-02-14T05:09:38.268Z,1.51
2023-02-14T05:10:38.291Z,1.48
2023-02-14T05:11:38.307Z,1.48
2023-02-14T05:12:38.316Z,1.47
2023-02-14T05:13:38.333Z,1.48
2023-02-14T05:14:38.371Z,1.47
2023-02-14T05:15:38.716Z,1.47
2023-02-14T05:16:38.465Z,1.45
2023-02-14T05:17:38.397Z,1.41
2023-02-14T05:18:38.412Z,1.58
2023-02-14T05:19:38.429Z,1.51
2023-02-14T05:20:38.456Z,1.54
2023-02-14T05:21:38.467Z,1.63
2023-02-14T05:22:38.476Z,1.59
2023-02-14T05:23:38.495Z,1.60
2023-02-14T05:24:38.509Z,1.69
2023-02-14T05:25:38.526Z,1.66
2023-02-14T05:26:38.548Z,1.52
2023-02-14T05:27:38.558Z,1.68
2023-02-14T05:28:38.573Z,1.68
2023-02-14T05:29:38.589Z,1.68
2023-02-14T05:30:38.821Z,1.69
2023-02-14T05:31:38.747Z,1.63
2023-02-14T05:32:38.638Z,1.65
2023-02-14T05:33:38.656Z,1.72
2023-02-14T05:34:38.676Z,1.59
2023-02-14T05:35:38.687Z,1.66
2023-02-14T05:36:38.699Z,1.68
2023-02-14T05:37:38.717Z,1.63
2023-02-14T05:38:38.735Z,1.68
2023-02-14T05:39:38.748Z,1.63
2023-02-14T05:40:38.764Z,1.72
2023-02-14T05:41:38.785Z,1.65
2023-02-14T05:42:38.797Z,1.69
2023-02-14T05:43:38.819Z,1.58
2023-02-14T05:44:38.835Z,1.63
2023-02-14T05:45:38.928Z,1.54
2023-02-14T05:46:38.864Z,1.58
2023-02-14T05:47:38.893Z,1.54
2023-02-14T05:48:38.895Z,1.48
2023-02-14T05:49:38.913Z,1.50
2023-02-14T05:50:38.937Z,1.45
2023-02-14T05:51:38.949Z,1.47
2023-02-14T05:52:38.959Z,1.34
2023-02-14T05:53:38.981Z,1.34
2023-02-14T05:54:38.992Z,1.37
2023-02-14T05:55:39.009Z,1.37
2023-02-14T05:56:39.022Z,1.41
2023-02-14T05:57:39.047Z,1.40
2023-02-14T05:58:39.064Z,1.34
2023-02-14T05:59:39.076Z,1.36
2023-02-14T06:00:41.078Z,1.41
2023-02-14T06:01:39.108Z,1.32
2023-02-14T06:02:39.127Z,1.44
2023-02-14T06:03:39.142Z,1.36
2023-02-14T06:04:39.301Z,1.41
2023-02-14T06:05:39.183Z,1.41
2023-02-14T06:06:39.191Z,1.40
2023-02-14T06:07:39.224Z,1.32
2023-02-14T06:08:39.228Z,1.40
2023-02-14T06:09:39.241Z,1.33
2023-02-14T06:10:39.252Z,1.30
2023-02-14T06:11:39.274Z,1.33
2023-02-14T06:12:39.298Z,1.24
2023-02-14T06:13:39.331Z,1.27
2023-02-14T06:14:39.316Z,1.23
2023-02-14T06:15:39.340Z,1.20
2023-02-14T06:16:39.349Z,1.23
2023-02-14T06:17:39.372Z,1.22
2023-02-14T06:18:39.387Z,1.20
2023-02-14T06:19:39.401Z,1.23
2023-02-14T06:20:39.424Z,1.24
2023-02-14T06:21:39.437Z,1.22
2023-02-14T06:22:39.456Z,1.23
2023-02-14T06:23:39.461Z,1.27
2023-02-14T06:24:39.478Z,1.22
2023-02-14T06:25:39.494Z,1.23
2023-02-14T06:26:39.515Z,1.29
2023-02-14T06:27:39.527Z,1.27
2023-02-14T06:28:39.548Z,1.22
2023-02-14T06:29:39.559Z,1.33
2023-02-14T06:30:39.809Z,1.26
2023-02-14T06:31:39.755Z,1.30
2023-02-14T06:32:39.603Z,1.26
2023-02-14T06:33:39.623Z,1.26
2023-02-14T06:34:39.638Z,1.26
2023-02-14T06:35:39.658Z,1.23
2023-02-14T06:36:39.668Z,1.27
2023-02-14T06:37:39.685Z,1.18
2023-02-14T06:38:39.702Z,1.16
2023-02-14T06:39:39.718Z,1.16
2023-02-14T06:40:39.731Z,1.15
2023-02-14T06:41:39.755Z,1.11
2023-02-14T06:42:39.764Z,1.16
2023-02-14T06:43:39.786Z,1.12
2023-02-14T06:44:39.795Z,1.11
2023-02-14T06:45:39.813Z,1.12
2023-02-14T06:46:39.831Z,1.22
2023-02-14T06:47:39.846Z,1.22
2023-02-14T06:48:39.862Z,1.23
2023-02-14T06:49:39.878Z,1.26
2023-02-14T06:50:39.896Z,1.26
2023-02-14T06:51:39.911Z,1.24
2023-02-14T06:52:39.922Z,1.27
2023-02-14T06:53:39.940Z,1.22
2023-02-14T06:54:39.961Z,1.34
2023-02-14T06:55:40.517Z,1.41
2023-02-14T06:56:39.991Z,1.33
2023-02-14T06:57:40.005Z,1.33
2023-02-14T06:58:40.037Z,1.36
2023-02-14T06:59:40.041Z,1.42
2023-02-14T07:00:40.058Z,1.40
2023-02-14T07:01:40.101Z,1.37
2023-02-14T07:02:40.132Z,1.36
2023-02-14T07:03:40.110Z,1.33
2023-02-14T07:04:40.130Z,1.44
2023-02-14T07:05:40.135Z,1.37
2023-02-14T07:06:40.166Z,1.37
2023-02-14T07:07:40.169Z,1.36
2023-02-14T07:08:40.184Z,1.41
2023-02-14T07:09:40.192Z,1.34
2023-02-14T07:10:40.212Z,1.37
2023-02-14T07:11:40.232Z,1.33
2023-02-14T07:12:40.245Z,1.26
2023-02-14T07:13:40.262Z,1.32
2023-02-14T07:14:40.299Z,1.34
2023-02-14T07:15:40.331Z,1.40
2023-02-14T07:16:40.315Z,1.42
2023-02-14T07:17:40.332Z,1.33
2023-02-14T07:18:40.338Z,1.33
2023-02-14T07:19:40.364Z,1.37
2023-02-14T07:20:40.376Z,1.40
2023-02-14T07:21:40.393Z,1.30
2023-02-14T07:22:40.425Z,1.40
2023-02-14T07:23:40.437Z,1.45
2023-02-14T07:24:40.442Z,1.48
2023-02-14T07:25:40.455Z,1.54
2023-02-14T07:26:40.478Z,1.50
2023-02-14T07:27:40.496Z,1.58
2023-02-14T07:28:40.502Z,1.63
2023-02-14T07:29:40.526Z,1.63
2023-02-14T07:30:40.605Z,1.62
2023-02-14T07:31:40.718Z,1.62
2023-02-14T07:32:40.574Z,1.69
2023-02-14T07:33:40.590Z,1.77
2023-02-14T07:34:40.616Z,1.76
2023-02-14T07:35:40.620Z,1.83
2023-02-14T07:36:40.636Z,1.86
2023-02-14T07:37:40.654Z,1.93
2023-02-14T07:38:40.673Z,1.88
2023-02-14T07:39:40.680Z,2.05
2023-02-14T07:40:40.698Z,2.02
2023-02-14T07:41:40.720Z,2.09
2023-02-14T07:42:40.731Z,2.17
2023-02-14T07:43:40.755Z,2.18
2023-02-14T07:44:40.766Z,2.23
2023-02-14T07:45:40.787Z,2.27
2023-02-14T07:46:40.869Z,2.36
2023-02-14T07:47:40.852Z,2.35
2023-02-14T07:48:40.865Z,2.48
2023-02-14T07:49:40.848Z,2.41
2023-02-14T07:50:40.932Z,2.54
2023-02-14T07:51:40.887Z,2.48
2023-02-14T07:52:40.909Z,2.48
2023-02-14T07:53:40.934Z,2.49
2023-02-14T07:54:40.964Z,2.59
2023-02-14T07:55:40.979Z,2.67
2023-02-14T07:56:40.964Z,2.74
2023-02-14T07:57:40.980Z,2.77
2023-02-14T07:58:41.017Z,2.79
2023-02-14T07:59:41.018Z,2.93
2023-02-14T08:00:41.032Z,2.85
2023-02-14T08:01:41.111Z,2.97
2023-02-14T08:02:41.068Z,2.90
2023-02-14T08:03:41.105Z,3.00
2023-02-14T08:04:41.111Z,3.10
2023-02-14T08:05:41.131Z,3.10
2023-02-14T08:06:41.139Z,3.17
2023-02-14T08:07:41.159Z,3.24
2023-02-14T08:08:41.170Z,3.28
2023-02-14T08:09:41.186Z,3.28
2023-02-14T08:10:41.206Z,3.29
2023-02-14T08:11:41.241Z,3.31
2023-02-14T08:12:41.242Z,3.36
2023-02-14T08:13:41.255Z,3.48
2023-02-14T08:14:41.288Z,3.47
2023-02-14T08:15:41.390Z,3.51
2023-02-14T08:16:41.309Z,3.58
2023-02-14T08:17:41.330Z,3.66
2023-02-14T08:18:41.346Z,3.61
2023-02-14T08:19:41.362Z,3.68
2023-02-14T08:20:41.375Z,3.70
2023-02-14T08:21:41.404Z,3.79
2023-02-14T08:22:41.412Z,3.88
2023-02-14T08:23:41.428Z,3.84
2023-02-14T08:24:41.443Z,3.91
2023-02-14T08:25:41.462Z,3.97
2023-02-14T08:26:41.567Z,3.98
2023-02-14T08:27:41.496Z,4.08
2023-02-14T08:28:41.514Z,4.04
2023-02-14T08:29:41.532Z,4.24
2023-02-14T08:30:41.548Z,4.18
2023-02-14T08:31:41.652Z,4.27
2023-02-14T08:32:41.745Z,4.29
2023-02-14T08:33:41.605Z,4.33
2023-02-14T08:34:41.622Z,4.42
2023-02-14T08:35:41.639Z,4.50
2023-02-14T08:36:41.656Z,4.47
2023-02-14T08:37:41.706Z,4.59
2023-02-14T08:38:41.708Z,4.62
2023-02-14T08:39:41.708Z,4.58
2023-02-14T08:40:41.815Z,4.66
2023-02-14T08:41:41.765Z,4.69
2023-02-14T08:42:41.777Z,4.72
2023-02-14T08:43:41.784Z,4.80
2023-02-14T08:44:41.809Z,4.82
2023-02-14T08:45:41.824Z,4.89
2023-02-14T08:46:41.977Z,4.85
2023-02-14T08:47:41.889Z,4.97
2023-02-14T08:48:41.869Z,4.92
2023-02-14T08:49:41.917Z,5.00
2023-02-14T08:50:41.911Z,5.02
2023-02-14T08:51:41.950Z,5.09
2023-02-14T08:52:41.959Z,5.03
2023-02-14T08:53:41.972Z,5.13
2023-02-14T08:54:41.987Z,5.15
2023-02-14T08:55:42.008Z,5.21
2023-02-14T08:56:42.014Z,5.36
2023-02-14T08:57:42.036Z,5.30
2023-02-14T08:58:42.062Z,5.40
2023-02-14T08:59:42.089Z,5.39
2023-02-14T09:00:42.150Z,5.40
2023-02-14T09:01:42.104Z,5.49
2023-02-14T09:02:42.125Z,5.57
2023-02-14T09:03:42.171Z,5.51
2023-02-14T09:04:42.174Z,5.63
2023-02-14T09:05:42.218Z,5.65
2023-02-14T09:06:42.210Z,5.61
2023-02-14T09:07:42.221Z,5.68
2023-02-14T09:08:42.236Z,5.79
2023-02-14T09:09:42.263Z,5.79
2023-02-14T09:10:42.286Z,5.82
2023-02-14T09:11:42.296Z,5.90
2023-02-14T09:12:42.307Z,6.01
2023-02-14T09:13:42.328Z,6.01
2023-02-14T09:14:42.409Z,6.04
2023-02-14T09:15:42.432Z,6.01
2023-02-14T09:16:42.464Z,6.12
2023-02-14T09:17:42.455Z,6.18
2023-02-14T09:18:42.451Z,6.19
2023-02-14T09:19:42.477Z,6.25
2023-02-14T09:20:42.458Z,6.31
2023-02-14T09:21:42.477Z,6.34
2023-02-14T09:22:42.534Z,6.30
2023-02-14T09:23:42.516Z,6.48
2023-02-14T09:24:42.534Z,6.49
2023-02-14T09:25:42.552Z,6.43
2023-02-14T09:26:42.583Z,6.56
2023-02-14T09:27:42.592Z,6.62
2023-02-14T09:28:42.620Z,6.61
2023-02-14T09:29:42.640Z,6.67
2023-02-14T09:30:42.671Z,6.77
2023-02-14T09:31:42.808Z,6.69
2023-02-14T09:32:42.714Z,6.88
2023-02-14T09:33:42.706Z,6.81
2023-02-14T09:34:42.727Z,6.79
2023-02-14T09:35:42.743Z,6.85
2023-02-14T09:36:42.767Z,6.88
2023-02-14T09:37:42.782Z,6.87
2023-02-14T09:38:42.801Z,6.94
2023-02-14T09:39:42.819Z,6.95
2023-02-14T09:40:42.853Z,6.92
2023-02-14T09:41:42.857Z,7.10
2023-02-14T09:42:42.880Z,7.06
2023-02-14T09:43:42.896Z,7.06
2023-02-14T09:44:42.915Z,7.10
2023-02-14T09:45:43.000Z,7.06
2023-02-14T09:46:42.970Z,7.07
2023-02-14T09:47:42.982Z,7.10
2023-02-14T09:48:43.038Z,7.09
2023-02-14T09:49:43.110Z,7.27
2023-02-14T09:50:43.030Z,7.27
2023-02-14T09:51:43.056Z,7.34
2023-02-14T09:52:43.070Z,7.30
2023-02-14T09:53:43.091Z,7.31
2023-02-14T09:54:43.112Z,7.34
2023-02-14T09:55:43.138Z,7.42
2023-02-14T09:56:51.260Z,7.45
2023-02-14T09:57:43.167Z,7.50
2023-02-14T09:58:43.187Z,7.55
2023-02-14T09:59:43.208Z,7.60
2023-02-14T10:00:43.277Z,7.72
2023-02-14T10:01:43.243Z,7.64
2023-02-14T10:02:43.266Z,7.80
2023-02-14T10:03:43.287Z,7.64
2023-02-14T10:04:43.306Z,7.82
2023-02-14T10:05:43.325Z,7.83
2023-02-14T10:06:43.359Z,7.82
2023-02-14T10:07:43.370Z,7.87
2023-02-14T10:08:43.384Z,7.90
2023-02-14T10:09:43.415Z,7.92
2023-02-14T10:10:43.453Z,7.98
2023-02-14T10:11:43.442Z,7.93
2023-02-14T10:12:43.464Z,7.95
2023-02-14T10:13:43.484Z,8.02
2023-02-14T10:14:43.502Z,8.05
2023-02-14T10:15:43.524Z,8.16
2023-02-14T10:16:43.582Z,8.16
2023-02-14T10:17:43.564Z,8.19
2023-02-14T10:18:43.588Z,8.23
2023-02-14T10:19:43.606Z,8.30
2023-02-14T10:20:43.620Z,8.36
2023-02-14T10:21:43.643Z,8.45
2023-02-14T10:22:43.661Z,8.44
2023-02-14T10:23:43.684Z,8.44
2023-02-14T10:24:43.725Z,8.52
2023-02-14T10:25:43.741Z,8.52
2023-02-14T10:26:43.744Z,8.68
2023-02-14T10:27:43.770Z,8.66
2023-02-14T10:28:43.792Z,8.63
2023-02-14T10:29:43.836Z,8.65
2023-02-14T10:30:43.921Z,8.73
2023-02-14T10:31:43.918Z,8.87
2023-02-14T10:32:43.863Z,8.83
2023-02-14T10:33:43.882Z,8.96
2023-02-14T10:34:43.912Z,8.94
2023-02-14T10:35:43.924Z,8.96
2023-02-14T10:36:43.951Z,9.11
2023-02-14T10:37:43.962Z,9.17
2023-02-14T10:38:43.992Z,9.11
2023-02-14T10:39:44.005Z,9.15
2023-02-14T10:40:44.027Z,9.17
2023-02-14T10:41:44.044Z,9.24
2023-02-14T10:42:44.066Z,9.21
2023-02-14T10:43:44.085Z,9.24
2023-02-14T10:44:44.108Z,9.35
2023-02-14T10:45:44.159Z,9.42
2023-02-14T10:46:44.150Z,9.46
2023-02-14T10:47:44.167Z,9.39
2023-02-14T10:48:44.193Z,9.42
2023-02-14T10:49:44.206Z,9.48
2023-02-14T10:50:44.229Z,9.43
2023-02-14T10:51:44.249Z,9.42
2023-02-14T10:52:44.273Z,9.57
2023-02-14T10:53:44.308Z,9.53
2023-02-14T10:54:44.314Z,9.57
2023-02-14T10:55:44.333Z,9.51
2023-02-14T10:56:44.355Z,9.54
2023-02-14T10:57:44.383Z,9.65
2023-02-14T10:58:44.398Z,9.71
2023-02-14T10:59:44.418Z,9.76
2023-02-14T11:00:44.435Z,9.78
2023-02-14T11:01:44.463Z,9.86
2023-02-14T11:02:44.477Z,9.89
2023-02-14T11:03:44.512Z,9.89
2023-02-14T11:04:44.520Z,9.96
2023-02-14T11:05:46.441Z,9.91
2023-02-14T11:06:44.562Z,10.05
2023-02-14T11:07:44.587Z,10.04
2023-02-14T11:08:44.603Z,10.17
2023-02-14T11:09:44.625Z,10.09
2023-02-14T11:10:44.650Z,10.12
2023-02-14T11:11:44.667Z,10.18
2023-02-14T11:12:44.688Z,10.26
2023-02-14T11:13:44.709Z,10.25
2023-02-14T11:14:44.740Z,10.27
2023-02-14T11:15:44.751Z,10.27
2023-02-14T11:16:44.811Z,10.33
2023-02-14T11:17:44.796Z,10.38
2023-02-14T11:18:44.815Z,10.40
2023-02-14T11:19:44.834Z,10.41
2023-02-14T11:20:44.857Z,10.45
2023-02-14T11:21:44.876Z,10.52
2023-02-14T11:22:44.896Z,10.56
2023-02-14T11:23:44.921Z,10.64
2023-02-14T11:24:44.938Z,10.60
2023-02-14T11:25:45.056Z,10.68
2023-02-14T11:26:44.989Z,10.63
2023-02-14T11:27:44.998Z,10.66
2023-02-14T11:28:45.036Z,10.67
2023-02-14T11:29:45.095Z,10.71
2023-02-14T11:30:45.071Z,10.73
2023-02-14T11:31:45.179Z,10.84
2023-02-14T11:32:45.108Z,10.85
2023-02-14T11:33:45.131Z,10.92
2023-02-14T11:34:45.182Z,10.88
2023-02-14T11:35:45.170Z,10.91
2023-02-14T11:36:45.193Z,10.97
2023-02-14T11:37:45.209Z,11.07
2023-02-14T11:38:45.245Z,11.04
2023-02-14T11:39:45.257Z,11.04
2023-02-14T11:40:45.281Z,11.07
2023-02-14T11:41:45.299Z,11.10
2023-02-14T11:42:45.542Z,11.11
2023-02-14T11:43:45.392Z,11.15
2023-02-14T11:44:45.366Z,11.19
2023-02-14T11:45:45.426Z,11.21
2023-02-14T11:46:53.157Z,11.25
2023-02-14T11:47:45.430Z,11.32
2023-02-14T11:48:45.450Z,11.33
2023-02-14T11:49:45.474Z,11.37
2023-02-14T11:50:45.500Z,11.42
2023-02-14T11:51:45.520Z,11.43
2023-02-14T11:52:45.541Z,11.46
2023-02-14T11:53:45.569Z,11.44
2023-02-14T11:54:45.582Z,11.40
2023-02-14T11:55:45.603Z,11.36
2023-02-14T11:56:45.627Z,11.40
2023-02-14T11:57:45.655Z,11.39
2023-02-14T11:58:45.666Z,11.40
2023-02-14T11:59:45.693Z,11.47
2023-02-14T12:00:45.712Z,11.43
2023-02-14T12:01:45.731Z,11.49
2023-02-14T12:02:45.801Z,11.43
2023-02-14T12:03:45.822Z,11.39
2023-02-14T12:04:46.873Z,11.47
2023-02-14T12:05:45.826Z,11.44
2023-02-14T12:06:45.861Z,11.55
2023-02-14T12:07:45.880Z,11.60
2023-02-14T12:08:45.892Z,11.62
2023-02-14T12:09:45.912Z,11.64
2023-02-14T12:10:45.930Z,11.65
2023-02-14T12:11:45.952Z,11.65
2023-02-14T12:12:45.975Z,11.65
2023-02-14T12:13:45.994Z,11.69
2023-02-14T12:14:46.037Z,11.60
2023-02-14T12:15:46.098Z,11.65
2023-02-14T12:16:46.064Z,11.61
2023-02-14T12:17:46.089Z,11.70
2023-02-14T12:18:46.111Z,11.70
2023-02-14T12:19:46.131Z,11.72
2023-02-14T12:20:46.149Z,11.75
2023-02-14T12:21:46.170Z,11.72
2023-02-14T12:22:46.204Z,11.73
2023-02-14T12:23:46.214Z,11.72
2023-02-14T12:24:46.240Z,11.83
2023-02-14T12:25:46.258Z,11.83
2023-02-14T12:26:46.285Z,11.79
2023-02-14T12:27:46.301Z,11.78
2023-02-14T12:28:46.323Z,11.88
2023-02-14T12:29:46.341Z,11.86
2023-02-14T12:30:46.529Z,11.96
2023-02-14T12:31:46.559Z,12.02
2023-02-14T12:32:46.405Z,12.04
2023-02-14T12:33:48.408Z,11.98
2023-02-14T12:34:46.453Z,12.07
2023-02-14T12:35:46.476Z,12.16
2023-02-14T12:36:46.494Z,12.13
2023-02-14T12:37:48.755Z,12.12
2023-02-14T12:38:46.542Z,12.12
2023-02-14T12:39:48.809Z,12.12
2023-02-14T12:40:46.583Z,12.10
2023-02-14T12:41:46.610Z,12.16
2023-02-14T12:42:46.766Z,12.28
2023-02-14T12:43:46.645Z,12.14
2023-02-14T12:44:46.666Z,12.27
2023-02-14T12:45:48.840Z,12.31
2023-02-14T12:46:46.728Z,12.21
2023-02-14T12:47:46.741Z,12.32
2023-02-14T12:48:46.758Z,12.34
2023-02-14T12:49:46.782Z,12.24
2023-02-14T12:50:46.813Z,12.27
2023-02-14T12:51:46.827Z,12.32
2023-02-14T12:52:46.845Z,12.29
2023-02-14T12:53:48.953Z,12.23
2023-02-14T12:54:46.893Z,12.34
2023-02-14T12:55:46.916Z,12.32
2023-02-14T12:56:46.938Z,12.34
2023-02-14T12:57:46.957Z,12.32
2023-02-14T12:58:46.984Z,12.41
2023-02-14T12:59:47.004Z,12.50
2023-02-14T13:00:47.029Z,12.41
2023-02-14T13:01:47.080Z,12.41
2023-02-14T13:02:47.084Z,12.49
2023-02-14T13:03:47.091Z,12.50
2023-02-14T13:04:47.114Z,12.62
2023-02-14T13:05:47.136Z,12.67
2023-02-14T13:06:47.160Z,12.56
2023-02-14T13:07:47.182Z,12.60
2023-02-14T13:08:47.206Z,12.62
2023-02-14T13:09:47.231Z,12.71
2023-02-14T13:10:47.254Z,12.70
2023-02-14T13:11:47.282Z,12.72
2023-02-14T13:12:47.295Z,12.74
2023-02-14T13:13:47.318Z,12.72
2023-02-14T13:14:47.338Z,12.75